createdAt,value
2023-02-17T00:01:36.142Z,4.41
2023-02-17T00:04:04.063Z,4.44
2023-02-17T00:06:32.885Z,4.46
2023-02-17T00:09:01.903Z,4.38
2023-02-17T00:11:30.455Z,4.40
2023-02-17T00:13:58.618Z,4.42
2023-02-17T00:16:29.293Z,4.41
2023-02-17T00:18:59.316Z,4.17
2023-02-17T00:21:30.218Z,4.30
2023-02-17T00:23:59.232Z,3.99
2023-02-17T00:26:27.227Z,3.92
2023-02-17T00:28:55.553Z,4.04
2023-02-17T00:31:24.580Z,4.20
2023-02-17T00:33:55.681Z,4.14
2023-02-17T00:36:23.724Z,4.05
2023-02-17T00:38:51.659Z,3.97
2023-02-17T00:41:20.581Z,4.02
2023-02-17T00:43:49.325Z,3.97
2023-02-17T00:46:19.227Z,3.91
2023-02-17T00:48:47.190Z,3.93
2023-02-17T00:51:17.200Z,3.96
2023-02-17T00:53:46.000Z,3.79
2023-02-17T00:56:14.384Z,3.58
2023-02-17T00:58:42.706Z,3.30
2023-02-17T01:01:11.141Z,3.14
2023-02-17T01:03:40.985Z,2.85
2023-02-17T01:06:10.884Z,2.67
2023-02-17T01:08:40.129Z,2.70
2023-02-17T01:11:07.993Z,2.66
2023-02-17T01:13:35.969Z,2.55
2023-02-17T01:16:04.195Z,2.59
2023-02-17T01:18:32.388Z,2.56
2023-02-17T01:21:00.286Z,2.52
2023-02-17T01:23:28.177Z,2.39
2023-02-17T01:25:57.408Z,2.44
2023-02-17T01:28:25.281Z,2.45
2023-02-17T01:30:53.133Z,2.51
2023-02-17T01:33:21.099Z,2.48
2023-02-17T01:35:48.923Z,2.68
2023-02-17T01:38:16.778Z,2.75
2023-02-17T01:40:48.483Z,2.66
2023-02-17T01:43:18.928Z,2.83
2023-02-17T01:45:50.777Z,2.74
2023-02-17T01:48:21.661Z,2.73
2023-02-17T01:50:54.191Z,2.68
2023-02-17T01:53:28.973Z,2.50
2023-02-17T01:55:57.577Z,2.47
2023-02-17T01:58:28.042Z,2.52
2023-02-17T02:01:00.183Z,2.38
2023-02-17T02:03:31.425Z,2.26
2023-02-17T02:06:00.649Z,2.21
2023-02-17T02:08:31.822Z,1.99
2023-02-17T02:10:59.703Z,1.85
2023-02-17T02:13:28.978Z,1.69
2023-02-17T02:16:12.417Z,1.37
2023-02-17T02:18:55.890Z,1.13
2023-02-17T02:22:06.210Z,1.08
2023-02-17T02:24:47.155Z,1.04
2023-02-17T02:27:36.046Z,1.09
2023-02-17T02:30:40.158Z,1.22
2023-02-17T02:33:17.979Z,1.21
2023-02-17T02:35:54.085Z,1.51
2023-02-17T02:38:27.814Z,1.68
2023-02-17T02:41:04.218Z,1.82
2023-02-17T02:43:33.692Z,1.68
2023-02-17T02:46:01.657Z,1.51
2023-02-17T02:48:31.619Z,1.39
2023-02-17T02:51:21.735Z,1.54
2023-02-17T02:54:11.971Z,1.46
2023-02-17T02:56:50.284Z,1.44
2023-02-17T02:59:33.085Z,1.67
2023-02-17T03:02:11.246Z,1.75
2023-02-17T03:04:47.309Z,1.94
2023-02-17T03:07:22.215Z,2.01
2023-02-17T03:09:51.715Z,1.80
2023-02-17T03:12:19.744Z,1.82
2023-02-17T03:14:49.558Z,1.81
2023-02-17T03:17:17.477Z,1.81
2023-02-17T03:19:47.723Z,1.63
2023-02-17T03:22:19.476Z,1.61
2023-02-17T03:24:47.319Z,1.61
2023-02-17T03:27:15.309Z,1.62
2023-02-17T03:29:43.752Z,1.66
2023-02-17T03:32:11.790Z,1.67
2023-02-17T03:34:39.869Z,1.67
2023-02-17T03:37:09.117Z,1.78
2023-02-17T03:39:37.035Z,1.75
2023-02-17T03:42:05.247Z,1.89
2023-02-17T03:44:33.080Z,1.99
2023-02-17T03:47:00.914Z,1.99
2023-02-17T03:49:28.956Z,1.98
2023-02-17T03:51:58.197Z,1.77
2023-02-17T03:54:28.035Z,1.89
2023-02-17T03:56:55.927Z,2.00
2023-02-17T03:59:23.837Z,1.97
2023-02-17T04:01:51.788Z,1.95
2023-02-17T04:04:19.758Z,2.08
2023-02-17T04:06:47.868Z,2.03
2023-02-17T04:09:15.790Z,2.04
2023-02-17T04:11:45.187Z,2.05
2023-02-17T04:14:13.010Z,2.11
2023-02-17T04:16:40.865Z,2.18
2023-02-17T04:19:08.743Z,2.20
2023-02-17T04:21:36.815Z,2.04
2023-02-17T04:24:05.145Z,1.90
2023-02-17T04:26:33.013Z,1.72
2023-02-17T04:29:05.125Z,1.85
2023-02-17T04:31:33.185Z,1.84
2023-02-17T04:34:01.129Z,1.91
2023-02-17T04:36:28.970Z,1.79
2023-02-17T04:38:56.812Z,1.65
2023-02-17T04:41:24.710Z,1.62
2023-02-17T04:43:52.765Z,1.52
2023-02-17T04:46:22.104Z,1.39
2023-02-17T04:48:50.015Z,1.41
2023-02-17T04:51:17.920Z,1.42
2023-02-17T04:53:45.780Z,1.54
2023-02-17T04:56:13.782Z,1.55
2023-02-17T04:58:41.693Z,1.56
2023-02-17T05:01:09.613Z,1.46
2023-02-17T05:03:38.850Z,1.34
2023-02-17T05:06:07.617Z,1.17
2023-02-17T05:08:35.546Z,1.22
2023-02-17T05:11:03.443Z,1.35
2023-02-17T05:13:33.191Z,1.40
2023-02-17T05:16:01.143Z,1.33
2023-02-17T05:18:29.064Z,1.36
2023-02-17T05:20:58.349Z,1.14
2023-02-17T05:23:26.222Z,1.17
2023-02-17T05:25:54.209Z,1.06
2023-02-17T05:28:22.048Z,1.45
2023-02-17T05:30:50.363Z,1.59
2023-02-17T05:33:18.415Z,1.57
2023-02-17T05:35:46.304Z,1.63
2023-02-17T05:38:15.585Z,1.57
2023-02-17T05:40:43.467Z,1.57
2023-02-17T05:43:11.466Z,1.34
2023-02-17T05:45:39.361Z,1.57
2023-02-17T05:48:07.210Z,1.70
2023-02-17T05:50:35.118Z,1.76
2023-02-17T05:53:03.051Z,1.52
2023-02-17T05:55:32.331Z,1.62
2023-02-17T05:58:01.314Z,1.62
2023-02-17T06:00:29.613Z,1.75
2023-02-17T06:02:57.529Z,1.68
2023-02-17T06:05:25.440Z,1.51
2023-02-17T06:07:53.324Z,1.53
2023-02-17T06:10:21.540Z,1.74
2023-02-17T06:12:50.894Z,1.62
2023-02-17T06:15:19.050Z,1.61
2023-02-17T06:17:46.937Z,1.79
2023-02-17T06:20:15.458Z,1.79
2023-02-17T06:22:44.606Z,1.73
2023-02-17T06:25:13.105Z,1.90
2023-02-17T06:27:42.972Z,1.87
2023-02-17T06:30:13.844Z,2.08
2023-02-17T06:32:41.745Z,2.21
2023-02-17T06:35:10.090Z,2.30
2023-02-17T06:37:38.057Z,2.21
2023-02-17T06:40:07.288Z,2.48
2023-02-17T06:42:35.160Z,2.39
2023-02-17T06:45:05.995Z,2.45
2023-02-17T06:47:36.321Z,2.53
2023-02-17T06:50:04.466Z,2.43
2023-02-17T06:52:32.454Z,2.50
2023-02-17T06:55:00.425Z,2.44
2023-02-17T06:57:28.334Z,2.55
2023-02-17T06:59:56.224Z,2.60
2023-02-17T07:02:24.196Z,2.68
2023-02-17T07:04:53.548Z,2.76
2023-02-17T07:07:21.469Z,2.87
2023-02-17T07:09:49.390Z,2.87
2023-02-17T07:12:17.406Z,3.10
2023-02-17T07:14:45.378Z,3.15
2023-02-17T07:17:13.542Z,3.15
2023-02-17T07:19:41.426Z,3.22
2023-02-17T07:22:10.736Z,3.34
2023-02-17T07:24:38.658Z,3.48
2023-02-17T07:27:08.521Z,3.54
2023-02-17T07:29:37.878Z,3.70
2023-02-17T07:32:06.110Z,3.88
2023-02-17T07:34:34.005Z,4.02
2023-02-17T07:37:01.875Z,4.18
2023-02-17T07:39:31.156Z,4.28
2023-02-17T07:42:01.043Z,4.38
2023-02-17T07:44:29.258Z,4.50
2023-02-17T07:46:57.110Z,4.54
2023-02-17T07:49:25.012Z,4.60
2023-02-17T07:51:52.948Z,4.69
2023-02-17T07:54:20.908Z,4.84
2023-02-17T07:56:50.174Z,5.06
2023-02-17T07:59:18.257Z,5.11
2023-02-17T08:01:46.334Z,5.00
2023-02-17T08:04:14.443Z,5.28
2023-02-17T08:06:42.318Z,5.49
2023-02-17T08:09:29.139Z,5.64
2023-02-17T08:12:16.195Z,5.78
2023-02-17T08:14:44.145Z,5.97
2023-02-17T08:17:12.231Z,6.03
2023-02-17T08:19:48.083Z,6.11
2023-02-17T08:22:17.166Z,6.19
2023-02-17T08:24:45.258Z,6.35
2023-02-17T08:27:15.932Z,6.39
2023-02-17T08:29:44.684Z,6.39
2023-02-17T08:32:13.067Z,6.66
2023-02-17T08:34:41.440Z,6.86
2023-02-17T08:37:11.047Z,7.02
2023-02-17T08:39:39.342Z,7.19
2023-02-17T08:42:07.297Z,7.26
2023-02-17T08:44:37.833Z,7.37
2023-02-17T08:47:06.943Z,7.50
2023-02-17T08:49:35.029Z,7.68
2023-02-17T08:52:03.534Z,7.87
2023-02-17T08:54:31.494Z,8.00
2023-02-17T08:56:59.692Z,8.17
2023-02-17T08:59:27.573Z,8.27
2023-02-17T09:01:56.863Z,8.41
2023-02-17T09:04:25.059Z,8.51
2023-02-17T09:06:56.054Z,8.62
2023-02-17T09:09:27.915Z,8.82
2023-02-17T09:11:57.597Z,9.01
2023-02-17T09:14:25.706Z,9.15
2023-02-17T09:16:54.864Z,9.35
2023-02-17T09:19:24.902Z,9.75
2023-02-17T09:21:52.822Z,10.03
2023-02-17T09:24:20.948Z,10.22
2023-02-17T09:26:49.132Z,10.58
2023-02-17T09:29:17.078Z,10.70
2023-02-17T09:31:46.190Z,10.83
2023-02-17T09:34:15.258Z,11.03
2023-02-17T09:36:44.656Z,11.06
2023-02-17T09:39:14.147Z,10.97
2023-02-17T09:41:47.297Z,11.31
2023-02-17T09:44:22.825Z,11.24
2023-02-17T09:47:02.157Z,11.35
2023-02-17T09:49:36.492Z,11.69
2023-02-17T09:52:12.764Z,11.99
2023-02-17T09:54:50.680Z,12.45
2023-02-17T09:57:22.306Z,12.77
2023-02-17T09:59:54.422Z,12.81
2023-02-17T10:02:30.851Z,13.02
2023-02-17T10:05:04.070Z,13.18
2023-02-17T10:07:38.114Z,13.27
2023-02-17T10:10:12.348Z,13.47
2023-02-17T10:12:45.642Z,13.59
2023-02-17T10:15:19.408Z,13.80
2023-02-17T10:17:55.556Z,13.89
2023-02-17T10:20:26.883Z,13.84
2023-02-17T10:23:02.899Z,13.88
2023-02-17T10:25:47.292Z,14.16
2023-02-17T10:28:19.773Z,13.56
2023-02-17T10:30:57.175Z,13.73
2023-02-17T10:33:30.444Z,14.11
2023-02-17T10:36:11.975Z,13.96
2023-02-17T10:38:50.611Z,13.92
2023-02-17T10:41:23.825Z,14.07
2023-02-17T10:43:52.164Z,14.42
2023-02-17T10:46:26.285Z,14.39
2023-02-17T10:48:56.257Z,14.10
2023-02-17T10:51:26.943Z,14.10
2023-02-17T10:54:01.034Z,14.12
2023-02-17T10:56:36.725Z,14.04
2023-02-17T10:59:09.902Z,13.95
2023-02-17T11:01:38.260Z,14.17
2023-02-17T11:04:08.580Z,14.10
2023-02-17T11:06:39.523Z,14.10
2023-02-17T11:09:20.123Z,14.22
2023-02-17T11:11:56.421Z,14.47
2023-02-17T11:14:29.016Z,14.85
2023-02-17T11:17:00.209Z,15.60
2023-02-17T11:19:30.500Z,15.68
2023-02-17T11:22:00.560Z,15.38
2023-02-17T11:24:31.744Z,15.34
2023-02-17T11:27:10.661Z,15.31
2023-02-17T11:29:38.889Z,15.73
2023-02-17T11:32:09.291Z,15.66
2023-02-17T11:34:39.537Z,15.70
2023-02-17T11:37:22.324Z,15.51
2023-02-17T11:39:54.519Z,15.60
2023-02-17T11:42:23.765Z,15.95
2023-02-17T11:44:52.818Z,15.74
2023-02-17T11:47:32.042Z,15.85
2023-02-17T11:50:39.014Z,15.34
2023-02-17T11:53:21.594Z,15.32
2023-02-17T11:56:02.858Z,15.35
2023-02-17T11:58:46.829Z,15.80
2023-02-17T12:01:31.047Z,15.63
2023-02-17T12:04:24.685Z,15.42
2023-02-17T12:07:06.646Z,15.72
2023-02-17T12:09:44.987Z,15.68
2023-02-17T12:12:23.499Z,15.82
2023-02-17T12:15:04.490Z,16.20
2023-02-17T12:17:44.270Z,16.37
2023-02-17T12:20:32.900Z,16.39
2023-02-17T12:23:14.749Z,16.54
2023-02-17T12:25:49.429Z,16.63
2023-02-17T12:28:42.768Z,16.30
2023-02-17T12:31:22.879Z,15.84
2023-02-17T12:33:59.126Z,15.67
2023-02-17T12:36:31.651Z,16.36
2023-02-17T12:39:04.375Z,16.90
2023-02-17T12:41:37.471Z,16.59
2023-02-17T12:44:13.291Z,16.81
2023-02-17T12:46:44.244Z,17.25
2023-02-17T12:49:17.872Z,17.03
2023-02-17T12:51:51.130Z,16.48
2023-02-17T12:54:24.788Z,17.07
2023-02-17T12:57:14.693Z,17.88
2023-02-17T12:59:45.891Z,18.44
2023-02-17T13:02:16.118Z,18.34
2023-02-17T13:04:46.264Z,17.93
2023-02-17T13:07:28.219Z,16.92
2023-02-17T13:09:57.924Z,16.55
2023-02-17T13:12:40.548Z,16.79
2023-02-17T13:15:38.182Z,17.54
2023-02-17T13:18:08.663Z,18.05
2023-02-17T13:20:45.867Z,17.95
2023-02-17T13:23:15.437Z,18.02
2023-02-17T13:25:43.372Z,17.51
2023-02-17T13:28:31.768Z,16.80
2023-02-17T13:31:10.609Z,16.63
2023-02-17T13:33:44.224Z,16.84
2023-02-17T13:36:22.502Z,16.78
2023-02-17T13:39:03.032Z,16.82
2023-02-17T13:41:35.666Z,17.22
2023-02-17T13:44:27.011Z,17.58
2023-02-17T13:47:00.032Z,17.78
2023-02-17T13:49:29.471Z,16.77
2023-02-17T13:52:08.924Z,16.66
2023-02-17T13:54:36.880Z,17.06
2023-02-17T13:57:05.007Z,17.11
2023-02-17T13:59:33.011Z,17.34
2023-02-17T14:02:02.272Z,16.78
2023-02-17T14:04:32.578Z,16.18
2023-02-17T14:07:05.269Z,16.23
2023-02-17T14:09:35.373Z,16.45
2023-02-17T14:12:05.644Z,17.26
2023-02-17T14:14:35.497Z,17.58
2023-02-17T14:17:06.992Z,17.55
2023-02-17T14:19:44.426Z,17.71
2023-02-17T14:22:26.496Z,17.29
2023-02-17T14:25:10.301Z,16.99
2023-02-17T14:27:44.923Z,17.06
2023-02-17T14:30:17.027Z,16.75
2023-02-17T14:32:47.297Z,16.46
2023-02-17T14:35:24.956Z,16.80
2023-02-17T14:37:53.324Z,17.08
2023-02-17T14:40:24.502Z,17.62
2023-02-17T14:42:53.829Z,17.72
2023-02-17T14:45:22.825Z,17.66
2023-02-17T14:47:53.984Z,17.44
2023-02-17T14:50:22.436Z,17.30
2023-02-17T14:52:53.135Z,16.87
2023-02-17T14:55:30.753Z,16.99
2023-02-17T14:57:59.362Z,16.79
2023-02-17T15:00:27.891Z,16.57
2023-02-17T15:02:57.619Z,16.32
2023-02-17T15:05:25.904Z,16.30
2023-02-17T15:08:03.889Z,16.17
2023-02-17T15:10:36.477Z,16.26
2023-02-17T15:13:04.584Z,15.57
2023-02-17T15:15:32.769Z,15.45
2023-02-17T15:18:14.332Z,15.14
2023-02-17T15:21:02.909Z,15.10
2023-02-17T15:23:35.355Z,15.08
2023-02-17T15:26:03.265Z,14.68
2023-02-17T15:28:31.188Z,14.80
2023-02-17T15:30:59.809Z,14.88
2023-02-17T15:33:29.221Z,14.68
2023-02-17T15:35:57.446Z,14.44
2023-02-17T15:38:27.526Z,14.27
2023-02-17T15:40:58.729Z,14.09
2023-02-17T15:46:14.363Z,13.59
2023-02-17T15:48:45.105Z,13.50
2023-02-17T15:51:15.073Z,13.56
2023-02-17T15:53:43.143Z,13.28
2023-02-17T15:56:14.787Z,13.22
2023-02-17T15:58:43.210Z,13.03
2023-02-17T16:01:17.999Z,12.95
2023-02-17T16:03:47.397Z,12.86
2023-02-17T16:06:15.307Z,12.67
2023-02-17T16:08:43.977Z,12.46
2023-02-17T16:11:13.928Z,12.35
2023-02-17T16:13:42.609Z,12.29
2023-02-17T16:16:17.078Z,12.12
2023-02-17T16:18:45.038Z,11.97
2023-02-17T16:21:14.594Z,11.97
2023-02-17T16:23:42.912Z,11.94
2023-02-17T16:26:17.286Z,11.73
2023-02-17T16:28:45.750Z,11.73
2023-02-17T16:31:13.766Z,11.70
2023-02-17T16:33:41.723Z,11.59
2023-02-17T16:36:17.482Z,11.47
2023-02-17T16:38:49.282Z,11.38
2023-02-17T16:41:19.154Z,11.16
2023-02-17T16:43:47.167Z,11.18
2023-02-17T16:46:24.578Z,11.12
2023-02-17T16:48:52.507Z,11.20
2023-02-17T16:51:21.890Z,11.17
2023-02-17T16:53:50.074Z,11.37
2023-02-17T16:56:20.950Z,11.20
2023-02-17T16:58:48.934Z,11.09
2023-02-17T17:01:16.967Z,11.18
2023-02-17T17:03:45.256Z,11.03
2023-02-17T17:06:24.624Z,11.02
2023-02-17T17:08:53.378Z,10.96
2023-02-17T17:11:23.601Z,10.95
2023-02-17T17:13:51.555Z,10.93
2023-02-17T17:16:22.575Z,10.89
2023-02-17T17:18:50.607Z,10.89
2023-02-17T17:21:20.432Z,10.76
2023-02-17T17:23:50.697Z,10.92
2023-02-17T17:26:24.412Z,10.73
2023-02-17T17:28:52.879Z,10.84
2023-02-17T17:31:21.300Z,10.46
2023-02-17T17:33:49.992Z,10.39
2023-02-17T17:36:24.546Z,10.37
2023-02-17T17:38:55.077Z,10.30
2023-02-17T17:41:23.978Z,10.20
2023-02-17T17:43:52.318Z,10.21
2023-02-17T17:46:22.767Z,10.14
2023-02-17T17:48:50.724Z,10.15
2023-02-17T17:51:21.509Z,10.01
2023-02-17T17:53:50.184Z,9.95
2023-02-17T17:56:21.378Z,10.06
2023-02-17T17:58:49.352Z,9.98
2023-02-17T18:01:19.335Z,9.93
2023-02-17T18:03:47.567Z,9.83
2023-02-17T18:06:20.125Z,9.87
2023-02-17T18:08:49.324Z,9.81
2023-02-17T18:11:20.305Z,9.87
2023-02-17T18:13:51.694Z,9.76
2023-02-17T18:16:21.214Z,9.70
2023-02-17T18:18:50.026Z,9.63
2023-02-17T18:21:18.392Z,9.61
2023-02-17T18:23:47.215Z,9.55
2023-02-17T18:26:16.423Z,9.58
2023-02-17T18:28:45.813Z,9.56
2023-02-17T18:31:16.803Z,9.58
2023-02-17T18:33:45.048Z,9.53
2023-02-17T18:36:15.873Z,9.39
2023-02-17T18:38:44.245Z,9.35
2023-02-17T18:41:18.342Z,9.27
2023-02-17T18:43:50.609Z,9.33
2023-02-17T18:46:18.790Z,9.22
2023-02-17T18:48:49.377Z,9.18
2023-02-17T18:51:23.194Z,9.08
2023-02-17T18:53:51.608Z,8.86
2023-02-17T18:56:22.496Z,8.92
2023-02-17T18:58:53.052Z,8.98
2023-02-17T19:01:22.746Z,9.03
2023-02-17T19:03:52.090Z,9.09
2023-02-17T19:06:22.574Z,9.16
2023-02-17T19:08:52.407Z,9.12
2023-02-17T19:11:22.727Z,9.11
2023-02-17T19:13:52.915Z,9.14
2023-02-17T19:16:23.068Z,9.15
2023-02-17T19:18:51.684Z,9.11
2023-02-17T19:21:20.258Z,9.07
2023-02-17T19:23:48.420Z,8.98
2023-02-17T19:26:17.851Z,9.09
2023-02-17T19:28:46.443Z,9.09
2023-02-17T19:31:17.647Z,9.07
2023-02-17T19:33:45.822Z,9.10
2023-02-17T19:36:16.102Z,9.14
2023-02-17T19:38:44.141Z,9.13
2023-02-17T19:41:14.606Z,9.14
2023-02-17T19:43:43.198Z,9.17
2023-02-17T19:46:13.069Z,9.26
2023-02-17T19:48:42.459Z,9.18
2023-02-17T19:51:14.035Z,8.88
2023-02-17T19:53:45.447Z,8.58
2023-02-17T19:56:15.506Z,8.35
2023-02-17T19:58:45.207Z,8.17
2023-02-17T20:01:15.305Z,8.13
2023-02-17T20:03:44.757Z,7.87
2023-02-17T20:06:16.692Z,7.68
2023-02-17T20:08:45.305Z,7.46
2023-02-17T20:11:14.377Z,7.52
2023-02-17T20:13:46.198Z,7.40
2023-02-17T20:16:16.042Z,7.47
2023-02-17T20:18:47.573Z,7.49
2023-02-17T20:21:18.021Z,7.43
2023-02-17T20:23:46.517Z,7.33
2023-02-17T20:26:16.006Z,7.41
2023-02-17T20:28:44.300Z,7.23
2023-02-17T20:31:13.410Z,7.22
2023-02-17T20:33:41.602Z,7.07
2023-02-17T20:36:11.963Z,7.28
2023-02-17T20:38:40.015Z,7.25
2023-02-17T20:41:09.808Z,7.25
2023-02-17T20:43:38.749Z,7.39
2023-02-17T20:46:07.657Z,7.48
2023-02-17T20:48:35.849Z,7.36
2023-02-17T20:51:05.779Z,7.34
2023-02-17T20:53:35.138Z,7.36
2023-02-17T20:56:03.419Z,7.40
2023-02-17T20:58:31.252Z,7.42
2023-02-17T21:00:59.259Z,7.41
2023-02-17T21:03:27.197Z,7.29
2023-02-17T21:05:55.094Z,7.30
2023-02-17T21:08:23.065Z,7.20
2023-02-17T21:10:52.340Z,7.20
2023-02-17T21:13:22.749Z,7.17
2023-02-17T21:15:51.211Z,7.07
2023-02-17T21:18:19.218Z,6.95
2023-02-17T21:20:47.122Z,6.95
2023-02-17T21:23:15.957Z,6.94
2023-02-17T21:25:46.315Z,6.70
2023-02-17T21:28:17.488Z,6.72
2023-02-17T21:30:47.185Z,6.75
2023-02-17T21:33:15.222Z,6.79
2023-02-17T21:35:43.200Z,6.92
2023-02-17T21:38:12.265Z,6.95
2023-02-17T21:40:40.139Z,6.93
2023-02-17T21:43:25.759Z,6.82
2023-02-17T21:45:55.074Z,6.53
2023-02-17T21:48:23.142Z,6.31
2023-02-17T21:50:50.995Z,6.33
2023-02-17T21:53:19.002Z,6.35
2023-02-17T21:55:47.584Z,6.28
2023-02-17T21:58:15.464Z,6.27
2023-02-17T22:00:43.395Z,6.22
2023-02-17T22:03:12.660Z,6.14
2023-02-17T22:05:40.536Z,6.02
2023-02-17T22:08:08.459Z,5.99
2023-02-17T22:10:38.401Z,5.89
2023-02-17T22:13:07.178Z,5.84
2023-02-17T22:15:35.574Z,5.86
2023-02-17T22:18:03.776Z,5.86
2023-02-17T22:20:33.035Z,5.78
2023-02-17T22:23:00.920Z,5.80
2023-02-17T22:25:28.813Z,5.81
2023-02-17T22:27:57.017Z,5.80
2023-02-17T22:30:25.596Z,5.86
2023-02-17T22:32:53.560Z,5.84
2023-02-17T22:35:22.052Z,5.89
2023-02-17T22:37:51.342Z,5.91
2023-02-17T22:40:19.382Z,5.90
2023-02-17T22:42:47.333Z,5.84
2023-02-17T22:45:15.232Z,5.87
2023-02-17T22:47:43.645Z,5.86
2023-02-17T22:50:11.689Z,5.95
2023-02-17T22:52:39.594Z,5.91
2023-02-17T22:55:09.869Z,5.84
2023-02-17T22:57:37.772Z,5.88
2023-02-17T23:00:06.777Z,5.79
2023-02-17T23:02:35.782Z,5.76
2023-02-17T23:05:04.000Z,5.61
2023-02-17T23:07:31.888Z,5.73
2023-02-17T23:09:59.796Z,5.77
2023-02-17T23:12:29.387Z,5.80
2023-02-17T23:14:57.295Z,5.85
2023-02-17T23:17:25.202Z,5.78
2023-02-17T23:19:53.091Z,5.68
2023-02-17T23:22:20.990Z,5.69
2023-02-17T23:24:49.373Z,5.73
2023-02-17T23:27:17.395Z,5.70
2023-02-17T23:29:46.607Z,5.56
2023-02-17T23:32:18.226Z,5.55
2023-02-17T23:34:46.110Z,5.48
2023-02-17T23:37:13.972Z,5.46
2023-02-17T23:39:41.909Z,5.29
2023-02-17T23:42:09.761Z,5.26
2023-02-17T23:44:37.654Z,5.13
2023-02-17T23:47:06.896Z,5.07
2023-02-17T23:49:34.732Z,5.07
2023-02-17T23:52:02.668Z,5.01
2023-02-17T23:54:30.544Z,4.96
2023-02-17T23:56:58.463Z,4.78
2023-02-17T23:59:26.344Z,4.81
